sensor_id;sensor_type;location;lat;lon;timestamp;P1;durP1;ratioP1;P2;durP2;ratioP2
77775;SDS011;66965;43.328;6.668;2023-08-20T00:01:31;8.98;;;6.93;;
77775;SDS011;66965;43.328;6.668;2023-08-20T00:03:57;8.82;;;6.43;;
77775;SDS011;66965;43.328;6.668;2023-08-20T00:06:23;12.80;;;7.47;;
77775;SDS011;66965;43.328;6.668;2023-08-20T00:11:14;13.00;;;6.82;;
77775;SDS011;66965;43.328;6.668;2023-08-20T00:13:40;9.90;;;6.90;;
77775;SDS011;66965;43.328;6.668;2023-08-20T00:16:06;11.55;;;6.97;;
77775;SDS011;66965;43.328;6.668;2023-08-20T00:20:57;11.73;;;7.13;;
77775;SDS011;66965;43.328;6.668;2023-08-20T00:23:24;9.00;;;6.93;;
77775;SDS011;66965;43.328;6.668;2023-08-20T00:28:16;9.82;;;6.47;;
77775;SDS011;66965;43.328;6.668;2023-08-20T00:30:41;8.07;;;6.28;;
77775;SDS011;66965;43.328;6.668;2023-08-20T00:33:06;10.60;;;6.35;;
77775;SDS011;66965;43.328;6.668;2023-08-20T00:35:32;8.10;;;5.32;;
77775;SDS011;66965;43.328;6.668;2023-08-20T00:37:58;9.40;;;6.07;;
77775;SDS011;66965;43.328;6.668;2023-08-20T00:40:23;8.02;;;6.25;;
77775;SDS011;66965;43.328;6.668;2023-08-20T00:42:49;9.48;;;6.55;;
77775;SDS011;66965;43.328;6.668;2023-08-20T00:45:14;11.32;;;6.07;;
77775;SDS011;66965;43.328;6.668;2023-08-20T00:47:41;10.13;;;6.35;;
77775;SDS011;66965;43.328;6.668;2023-08-20T00:50:07;13.73;;;6.70;;
77775;SDS011;66965;43.328;6.668;2023-08-20T00:52:34;9.05;;;6.43;;
77775;SDS011;66965;43.328;6.668;2023-08-20T00:55:00;9.40;;;6.05;;
77775;SDS011;66965;43.328;6.668;2023-08-20T00:57:32;9.60;;;6.85;;
77775;SDS011;66965;43.328;6.668;2023-08-20T00:59:57;10.90;;;6.60;;
77775;SDS011;66965;43.328;6.668;2023-08-20T01:02:23;9.95;;;6.70;;
77775;SDS011;66965;43.328;6.668;2023-08-20T01:04:48;8.52;;;6.38;;
77775;SDS011;66965;43.328;6.668;2023-08-20T01:08:03;8.18;;;6.45;;
77775;SDS011;66965;43.328;6.668;2023-08-20T01:10:10;9.18;;;5.47;;
77775;SDS011;66965;43.328;6.668;2023-08-20T01:12:43;9.45;;;6.38;;
77775;SDS011;66965;43.328;6.668;2023-08-20T01:15:09;10.38;;;5.90;;
77775;SDS011;66965;43.328;6.668;2023-08-20T01:17:39;8.70;;;6.10;;
77775;SDS011;66965;43.328;6.668;2023-08-20T01:20:05;8.98;;;6.00;;
77775;SDS011;66965;43.328;6.668;2023-08-20T01:30:22;8.07;;;6.23;;
77775;SDS011;66965;43.328;6.668;2023-08-20T01:32:49;9.68;;;6.00;;
77775;SDS011;66965;43.328;6.668;2023-08-20T01:35:17;13.93;;;6.07;;
77775;SDS011;66965;43.328;6.668;2023-08-20T01:37:43;8.95;;;5.88;;
77775;SDS011;66965;43.328;6.668;2023-08-20T01:40:09;8.15;;;5.50;;
77775;SDS011;66965;43.328;6.668;2023-08-20T01:42:38;9.65;;;5.88;;
77775;SDS011;66965;43.328;6.668;2023-08-20T01:45:05;8.27;;;5.47;;
77775;SDS011;66965;43.328;6.668;2023-08-20T01:47:32;8.73;;;5.60;;
77775;SDS011;66965;43.328;6.668;2023-08-20T01:50:00;8.57;;;5.60;;
77775;SDS011;66965;43.328;6.668;2023-08-20T01:52:26;9.82;;;5.65;;
77775;SDS011;66965;43.328;6.668;2023-08-20T01:54:52;9.95;;;6.38;;
77775;SDS011;66965;43.328;6.668;2023-08-20T01:57:18;10.45;;;6.38;;
77775;SDS011;66965;43.328;6.668;2023-08-20T01:59:43;8.68;;;6.93;;
77775;SDS011;66965;43.328;6.668;2023-08-20T02:02:09;10.32;;;6.70;;
77775;SDS011;66965;43.328;6.668;2023-08-20T02:04:34;10.77;;;7.18;;
77775;SDS011;66965;43.328;6.668;2023-08-20T02:07:00;7.47;;;6.03;;
77775;SDS011;66965;43.328;6.668;2023-08-20T02:09:25;9.07;;;6.75;;
77775;SDS011;66965;43.328;6.668;2023-08-20T02:11:51;9.60;;;6.28;;
77775;SDS011;66965;43.328;6.668;2023-08-20T02:14:17;7.18;;;5.95;;
77775;SDS011;66965;43.328;6.668;2023-08-20T02:16:42;8.82;;;6.00;;
77775;SDS011;66965;43.328;6.668;2023-08-20T02:19:08;7.75;;;6.40;;
77775;SDS011;66965;43.328;6.668;2023-08-20T02:21:34;8.45;;;6.30;;
77775;SDS011;66965;43.328;6.668;2023-08-20T02:24:00;11.40;;;6.63;;
77775;SDS011;66965;43.328;6.668;2023-08-20T02:26:25;8.23;;;6.38;;
77775;SDS011;66965;43.328;6.668;2023-08-20T02:28:51;11.73;;;5.53;;
77775;SDS011;66965;43.328;6.668;2023-08-20T02:31:16;7.78;;;5.85;;
77775;SDS011;66965;43.328;6.668;2023-08-20T02:33:42;8.15;;;5.20;;
77775;SDS011;66965;43.328;6.668;2023-08-20T02:36:07;11.00;;;7.05;;
77775;SDS011;66965;43.328;6.668;2023-08-20T02:38:33;11.93;;;6.40;;
77775;SDS011;66965;43.328;6.668;2023-08-20T02:40:58;10.45;;;5.75;;
77775;SDS011;66965;43.328;6.668;2023-08-20T02:43:24;7.55;;;5.65;;
77775;SDS011;66965;43.328;6.668;2023-08-20T02:45:49;7.13;;;5.82;;
77775;SDS011;66965;43.328;6.668;2023-08-20T02:48:15;7.38;;;5.20;;
77775;SDS011;66965;43.328;6.668;2023-08-20T02:50:40;11.10;;;5.63;;
77775;SDS011;66965;43.328;6.668;2023-08-20T02:53:06;9.00;;;5.53;;
77775;SDS011;66965;43.328;6.668;2023-08-20T02:55:32;10.25;;;5.50;;
77775;SDS011;66965;43.328;6.668;2023-08-20T02:57:58;9.75;;;5.40;;
77775;SDS011;66965;43.328;6.668;2023-08-20T03:00:24;8.75;;;5.47;;
77775;SDS011;66965;43.328;6.668;2023-08-20T03:02:50;7.05;;;4.80;;
77775;SDS011;66965;43.328;6.668;2023-08-20T03:05:15;8.07;;;5.32;;
77775;SDS011;66965;43.328;6.668;2023-08-20T03:07:41;8.15;;;5.18;;
77775;SDS011;66965;43.328;6.668;2023-08-20T03:10:07;8.02;;;4.78;;
77775;SDS011;66965;43.328;6.668;2023-08-20T03:12:32;10.50;;;4.57;;
77775;SDS011;66965;43.328;6.668;2023-08-20T03:14:58;6.60;;;4.93;;
77775;SDS011;66965;43.328;6.668;2023-08-20T03:17:24;8.93;;;5.13;;
77775;SDS011;66965;43.328;6.668;2023-08-20T03:19:53;8.60;;;4.85;;
77775;SDS011;66965;43.328;6.668;2023-08-20T03:22:31;7.13;;;4.55;;
77775;SDS011;66965;43.328;6.668;2023-08-20T03:24:56;7.53;;;4.65;;
77775;SDS011;66965;43.328;6.668;2023-08-20T03:27:22;7.00;;;4.45;;
77775;SDS011;66965;43.328;6.668;2023-08-20T03:29:47;8.18;;;4.93;;
77775;SDS011;66965;43.328;6.668;2023-08-20T03:32:13;9.77;;;5.57;;
77775;SDS011;66965;43.328;6.668;2023-08-20T03:34:38;7.15;;;4.60;;
77775;SDS011;66965;43.328;6.668;2023-08-20T03:37:04;7.38;;;5.13;;
77775;SDS011;66965;43.328;6.668;2023-08-20T03:39:30;9.95;;;6.03;;
77775;SDS011;66965;43.328;6.668;2023-08-20T03:41:56;9.20;;;5.32;;
77775;SDS011;66965;43.328;6.668;2023-08-20T03:44:22;8.50;;;4.80;;
77775;SDS011;66965;43.328;6.668;2023-08-20T03:46:48;7.15;;;5.03;;
77775;SDS011;66965;43.328;6.668;2023-08-20T03:49:13;11.75;;;5.30;;
77775;SDS011;66965;43.328;6.668;2023-08-20T03:51:39;9.05;;;4.93;;
77775;SDS011;66965;43.328;6.668;2023-08-20T03:54:04;8.30;;;5.07;;
77775;SDS011;66965;43.328;6.668;2023-08-20T03:56:29;8.18;;;5.00;;
77775;SDS011;66965;43.328;6.668;2023-08-20T03:58:55;7.78;;;5.03;;
77775;SDS011;66965;43.328;6.668;2023-08-20T04:01:21;7.80;;;5.25;;
77775;SDS011;66965;43.328;6.668;2023-08-20T04:03:46;10.70;;;5.30;;
77775;SDS011;66965;43.328;6.668;2023-08-20T04:06:13;9.38;;;5.18;;
77775;SDS011;66965;43.328;6.668;2023-08-20T04:08:39;7.38;;;5.80;;
77775;SDS011;66965;43.328;6.668;2023-08-20T04:11:04;8.68;;;5.18;;
77775;SDS011;66965;43.328;6.668;2023-08-20T04:13:30;7.05;;;5.10;;
77775;SDS011;66965;43.328;6.668;2023-08-20T04:15:56;8.80;;;5.32;;
77775;SDS011;66965;43.328;6.668;2023-08-20T04:18:22;8.48;;;5.35;;
77775;SDS011;66965;43.328;6.668;2023-08-20T04:20:50;8.10;;;5.15;;
77775;SDS011;66965;43.328;6.668;2023-08-20T04:23:16;9.15;;;5.50;;
77775;SDS011;66965;43.328;6.668;2023-08-20T04:25:41;8.63;;;5.40;;
77775;SDS011;66965;43.328;6.668;2023-08-20T04:28:07;9.35;;;5.22;;
77775;SDS011;66965;43.328;6.668;2023-08-20T04:30:34;7.88;;;5.50;;
77775;SDS011;66965;43.328;6.668;2023-08-20T04:33:00;7.55;;;4.82;;
77775;SDS011;66965;43.328;6.668;2023-08-20T04:35:25;7.38;;;5.13;;
77775;SDS011;66965;43.328;6.668;2023-08-20T04:37:51;7.25;;;5.07;;
77775;SDS011;66965;43.328;6.668;2023-08-20T04:40:16;11.98;;;5.90;;
77775;SDS011;66965;43.328;6.668;2023-08-20T04:42:41;7.75;;;5.22;;
77775;SDS011;66965;43.328;6.668;2023-08-20T04:45:07;8.43;;;4.70;;
77775;SDS011;66965;43.328;6.668;2023-08-20T04:47:33;8.88;;;4.32;;
77775;SDS011;66965;43.328;6.668;2023-08-20T04:49:59;7.90;;;4.88;;
77775;SDS011;66965;43.328;6.668;2023-08-20T04:52:24;7.53;;;4.75;;
77775;SDS011;66965;43.328;6.668;2023-08-20T04:54:49;6.25;;;4.80;;
77775;SDS011;66965;43.328;6.668;2023-08-20T04:57:15;8.02;;;4.47;;
77775;SDS011;66965;43.328;6.668;2023-08-20T04:59:41;9.23;;;4.90;;
77775;SDS011;66965;43.328;6.668;2023-08-20T05:02:10;15.20;;;5.00;;
77775;SDS011;66965;43.328;6.668;2023-08-20T05:04:38;8.30;;;5.03;;
77775;SDS011;66965;43.328;6.668;2023-08-20T05:07:04;6.93;;;5.55;;
77775;SDS011;66965;43.328;6.668;2023-08-20T05:09:29;8.18;;;4.88;;
77775;SDS011;66965;43.328;6.668;2023-08-20T05:11:55;7.68;;;5.68;;
77775;SDS011;66965;43.328;6.668;2023-08-20T05:14:20;6.85;;;5.30;;
77775;SDS011;66965;43.328;6.668;2023-08-20T05:16:46;9.63;;;5.10;;
77775;SDS011;66965;43.328;6.668;2023-08-20T05:19:11;9.52;;;5.93;;
77775;SDS011;66965;43.328;6.668;2023-08-20T05:21:36;10.07;;;4.82;;
77775;SDS011;66965;43.328;6.668;2023-08-20T05:24:02;9.40;;;4.90;;
77775;SDS011;66965;43.328;6.668;2023-08-20T05:26:28;7.03;;;5.93;;
77775;SDS011;66965;43.328;6.668;2023-08-20T05:28:54;10.40;;;5.70;;
77775;SDS011;66965;43.328;6.668;2023-08-20T05:31:19;10.95;;;5.88;;
77775;SDS011;66965;43.328;6.668;2023-08-20T05:33:45;12.82;;;5.15;;
77775;SDS011;66965;43.328;6.668;2023-08-20T05:36:10;7.70;;;5.38;;
77775;SDS011;66965;43.328;6.668;2023-08-20T05:38:35;11.07;;;5.88;;
77775;SDS011;66965;43.328;6.668;2023-08-20T05:41:01;6.18;;;5.07;;
77775;SDS011;66965;43.328;6.668;2023-08-20T05:43:26;10.82;;;5.50;;
77775;SDS011;66965;43.328;6.668;2023-08-20T05:45:52;7.22;;;5.07;;
77775;SDS011;66965;43.328;6.668;2023-08-20T05:48:17;13.85;;;6.38;;
77775;SDS011;66965;43.328;6.668;2023-08-20T05:50:43;8.82;;;4.75;;
77775;SDS011;66965;43.328;6.668;2023-08-20T05:55:34;18.37;;;7.37;;
77775;SDS011;66965;43.328;6.668;2023-08-20T05:57:59;12.77;;;6.40;;
77775;SDS011;66965;43.328;6.668;2023-08-20T06:00:25;12.85;;;5.88;;
77775;SDS011;66965;43.328;6.668;2023-08-20T06:02:50;9.68;;;5.57;;
77775;SDS011;66965;43.328;6.668;2023-08-20T06:05:16;10.38;;;6.13;;
77775;SDS011;66965;43.328;6.668;2023-08-20T06:07:41;8.65;;;5.20;;
77775;SDS011;66965;43.328;6.668;2023-08-20T06:10:07;9.70;;;5.15;;
77775;SDS011;66965;43.328;6.668;2023-08-20T06:12:33;12.85;;;5.65;;
77775;SDS011;66965;43.328;6.668;2023-08-20T06:14:59;8.23;;;5.32;;
77775;SDS011;66965;43.328;6.668;2023-08-20T06:17:24;9.45;;;5.13;;
77775;SDS011;66965;43.328;6.668;2023-08-20T06:19:49;9.18;;;5.07;;
77775;SDS011;66965;43.328;6.668;2023-08-20T06:22:15;8.18;;;5.80;;
77775;SDS011;66965;43.328;6.668;2023-08-20T06:24:40;9.68;;;5.50;;
77775;SDS011;66965;43.328;6.668;2023-08-20T06:27:06;8.05;;;4.90;;
77775;SDS011;66965;43.328;6.668;2023-08-20T06:29:31;7.20;;;5.75;;
77775;SDS011;66965;43.328;6.668;2023-08-20T06:31:57;9.85;;;5.45;;
77775;SDS011;66965;43.328;6.668;2023-08-20T06:34:22;10.75;;;5.70;;
77775;SDS011;66965;43.328;6.668;2023-08-20T06:36:48;10.15;;;5.22;;
77775;SDS011;66965;43.328;6.668;2023-08-20T06:39:14;8.50;;;6.22;;
77775;SDS011;66965;43.328;6.668;2023-08-20T06:41:40;11.55;;;5.90;;
77775;SDS011;66965;43.328;6.668;2023-08-20T06:44:06;14.13;;;6.60;;
77775;SDS011;66965;43.328;6.668;2023-08-20T06:46:32;12.38;;;5.70;;
77775;SDS011;66965;43.328;6.668;2023-08-20T06:48:57;11.77;;;5.68;;
77775;SDS011;66965;43.328;6.668;2023-08-20T06:51:23;9.32;;;5.25;;
77775;SDS011;66965;43.328;6.668;2023-08-20T06:53:50;9.15;;;5.63;;
77775;SDS011;66965;43.328;6.668;2023-08-20T06:56:16;8.18;;;5.65;;
77775;SDS011;66965;43.328;6.668;2023-08-20T06:58:42;9.75;;;6.15;;
77775;SDS011;66965;43.328;6.668;2023-08-20T07:03:37;12.77;;;7.25;;
77775;SDS011;66965;43.328;6.668;2023-08-20T07:06:03;13.77;;;6.78;;
77775;SDS011;66965;43.328;6.668;2023-08-20T07:08:29;14.75;;;5.70;;
77775;SDS011;66965;43.328;6.668;2023-08-20T07:10:54;11.07;;;5.85;;
77775;SDS011;66965;43.328;6.668;2023-08-20T07:13:20;8.32;;;6.07;;
77775;SDS011;66965;43.328;6.668;2023-08-20T07:15:46;8.52;;;6.15;;
77775;SDS011;66965;43.328;6.668;2023-08-20T07:18:11;9.90;;;5.57;;
77775;SDS011;66965;43.328;6.668;2023-08-20T07:20:44;9.75;;;5.78;;
77775;SDS011;66965;43.328;6.668;2023-08-20T07:23:10;9.45;;;4.82;;
77775;SDS011;66965;43.328;6.668;2023-08-20T07:25:36;8.85;;;5.90;;
77775;SDS011;66965;43.328;6.668;2023-08-20T07:28:04;10.57;;;5.72;;
77775;SDS011;66965;43.328;6.668;2023-08-20T07:30:30;10.45;;;5.97;;
77775;SDS011;66965;43.328;6.668;2023-08-20T07:35:21;13.20;;;5.67;;
77775;SDS011;66965;43.328;6.668;2023-08-20T07:37:46;13.50;;;6.18;;
77775;SDS011;66965;43.328;6.668;2023-08-20T07:42:39;12.52;;;6.65;;
77775;SDS011;66965;43.328;6.668;2023-08-20T07:45:05;8.80;;;5.55;;
77775;SDS011;66965;43.328;6.668;2023-08-20T07:47:32;12.15;;;6.10;;
77775;SDS011;66965;43.328;6.668;2023-08-20T07:52:24;10.52;;;6.32;;
77775;SDS011;66965;43.328;6.668;2023-08-20T07:57:15;14.63;;;6.85;;
77775;SDS011;66965;43.328;6.668;2023-08-20T08:02:06;12.57;;;5.10;;
77775;SDS011;66965;43.328;6.668;2023-08-20T08:04:32;8.82;;;5.10;;
77775;SDS011;66965;43.328;6.668;2023-08-20T08:06:58;10.45;;;5.03;;
77775;SDS011;66965;43.328;6.668;2023-08-20T08:09:30;8.48;;;5.20;;
77775;SDS011;66965;43.328;6.668;2023-08-20T08:11:57;9.45;;;5.10;;
77775;SDS011;66965;43.328;6.668;2023-08-20T08:14:23;8.88;;;5.47;;
77775;SDS011;66965;43.328;6.668;2023-08-20T08:16:49;7.57;;;5.25;;
77775;SDS011;66965;43.328;6.668;2023-08-20T08:19:15;11.25;;;4.90;;
77775;SDS011;66965;43.328;6.668;2023-08-20T08:21:41;11.73;;;5.65;;
77775;SDS011;66965;43.328;6.668;2023-08-20T08:24:07;9.60;;;5.70;;
77775;SDS011;66965;43.328;6.668;2023-08-20T08:26:34;18.20;;;5.60;;
77775;SDS011;66965;43.328;6.668;2023-08-20T08:29:03;8.70;;;4.82;;
77775;SDS011;66965;43.328;6.668;2023-08-20T08:31:30;8.90;;;4.78;;
77775;SDS011;66965;43.328;6.668;2023-08-20T08:33:55;8.13;;;4.72;;
77775;SDS011;66965;43.328;6.668;2023-08-20T08:36:21;9.85;;;4.65;;
77775;SDS011;66965;43.328;6.668;2023-08-20T08:38:46;10.90;;;5.13;;
77775;SDS011;66965;43.328;6.668;2023-08-20T08:41:12;10.77;;;5.80;;
77775;SDS011;66965;43.328;6.668;2023-08-20T08:43:38;10.10;;;5.10;;
77775;SDS011;66965;43.328;6.668;2023-08-20T08:46:11;7.43;;;4.78;;
77775;SDS011;66965;43.328;6.668;2023-08-20T08:48:42;10.50;;;5.05;;
77775;SDS011;66965;43.328;6.668;2023-08-20T08:51:08;10.20;;;4.70;;
77775;SDS011;66965;43.328;6.668;2023-08-20T08:53:35;11.23;;;5.05;;
77775;SDS011;66965;43.328;6.668;2023-08-20T08:56:01;11.20;;;5.28;;
77775;SDS011;66965;43.328;6.668;2023-08-20T08:58:28;13.00;;;5.55;;
77775;SDS011;66965;43.328;6.668;2023-08-20T09:00:53;12.57;;;6.63;;
77775;SDS011;66965;43.328;6.668;2023-08-20T09:03:19;10.85;;;5.47;;
77775;SDS011;66965;43.328;6.668;2023-08-20T09:05:48;11.13;;;5.45;;
77775;SDS011;66965;43.328;6.668;2023-08-20T09:10:46;11.60;;;5.35;;
77775;SDS011;66965;43.328;6.668;2023-08-20T09:13:14;13.10;;;5.55;;
77775;SDS011;66965;43.328;6.668;2023-08-20T09:15:40;8.80;;;5.35;;
77775;SDS011;66965;43.328;6.668;2023-08-20T09:18:08;10.00;;;5.35;;
77775;SDS011;66965;43.328;6.668;2023-08-20T09:20:35;13.48;;;5.63;;
77775;SDS011;66965;43.328;6.668;2023-08-20T09:23:02;18.42;;;6.28;;
77775;SDS011;66965;43.328;6.668;2023-08-20T09:25:27;10.40;;;5.15;;
77775;SDS011;66965;43.328;6.668;2023-08-20T09:27:53;13.77;;;5.65;;
77775;SDS011;66965;43.328;6.668;2023-08-20T09:30:19;13.10;;;5.53;;
77775;SDS011;66965;43.328;6.668;2023-08-20T09:35:36;10.20;;;5.05;;
77775;SDS011;66965;43.328;6.668;2023-08-20T09:38:05;11.30;;;5.25;;
77775;SDS011;66965;43.328;6.668;2023-08-20T09:40:31;15.10;;;5.63;;
77775;SDS011;66965;43.328;6.668;2023-08-20T09:42:57;12.63;;;5.47;;
77775;SDS011;66965;43.328;6.668;2023-08-20T09:45:27;11.20;;;5.60;;
77775;SDS011;66965;43.328;6.668;2023-08-20T09:47:54;11.68;;;5.82;;
77775;SDS011;66965;43.328;6.668;2023-08-20T09:50:23;12.95;;;6.07;;
77775;SDS011;66965;43.328;6.668;2023-08-20T09:55:17;10.97;;;5.83;;
77775;SDS011;66965;43.328;6.668;2023-08-20T09:57:47;18.20;;;6.43;;
77775;SDS011;66965;43.328;6.668;2023-08-20T10:00:13;16.17;;;5.90;;
77775;SDS011;66965;43.328;6.668;2023-08-20T10:02:39;10.63;;;5.47;;
77775;SDS011;66965;43.328;6.668;2023-08-20T10:05:07;12.23;;;5.38;;
77775;SDS011;66965;43.328;6.668;2023-08-20T10:07:34;11.07;;;5.55;;
77775;SDS011;66965;43.328;6.668;2023-08-20T10:10:18;17.83;;;5.97;;
77775;SDS011;66965;43.328;6.668;2023-08-20T10:12:43;11.38;;;5.47;;
77775;SDS011;66965;43.328;6.668;2023-08-20T10:15:11;11.68;;;5.55;;
77775;SDS011;66965;43.328;6.668;2023-08-20T10:17:39;11.80;;;5.10;;
77775;SDS011;66965;43.328;6.668;2023-08-20T10:20:08;13.45;;;5.75;;
77775;SDS011;66965;43.328;6.668;2023-08-20T10:22:36;9.52;;;5.30;;
77775;SDS011;66965;43.328;6.668;2023-08-20T10:25:09;10.35;;;5.43;;
77775;SDS011;66965;43.328;6.668;2023-08-20T10:27:36;12.57;;;5.57;;
77775;SDS011;66965;43.328;6.668;2023-08-20T10:30:09;10.43;;;5.50;;
77775;SDS011;66965;43.328;6.668;2023-08-20T10:32:56;15.38;;;5.55;;
77775;SDS011;66965;43.328;6.668;2023-08-20T10:35:27;10.50;;;5.72;;
77775;SDS011;66965;43.328;6.668;2023-08-20T10:38:14;12.73;;;5.90;;
77775;SDS011;66965;43.328;6.668;2023-08-20T10:40:48;12.20;;;6.47;;
77775;SDS011;66965;43.328;6.668;2023-08-20T10:48:38;12.13;;;6.55;;
77775;SDS011;66965;43.328;6.668;2023-08-20T10:51:27;14.65;;;6.75;;
77775;SDS011;66965;43.328;6.668;2023-08-20T10:56:26;23.20;;;8.40;;
77775;SDS011;66965;43.328;6.668;2023-08-20T10:59:05;12.60;;;6.75;;
77775;SDS011;66965;43.328;6.668;2023-08-20T11:01:32;17.02;;;7.22;;
77775;SDS011;66965;43.328;6.668;2023-08-20T11:03:58;13.05;;;6.75;;
77775;SDS011;66965;43.328;6.668;2023-08-20T11:06:30;17.63;;;7.65;;
77775;SDS011;66965;43.328;6.668;2023-08-20T11:08:57;15.18;;;7.88;;
77775;SDS011;66965;43.328;6.668;2023-08-20T11:11:23;15.90;;;7.43;;
77775;SDS011;66965;43.328;6.668;2023-08-20T11:13:49;13.88;;;6.38;;
77775;SDS011;66965;43.328;6.668;2023-08-20T11:16:14;13.10;;;6.68;;
77775;SDS011;66965;43.328;6.668;2023-08-20T11:18:39;15.30;;;6.40;;
77775;SDS011;66965;43.328;6.668;2023-08-20T11:21:06;13.38;;;5.97;;
77775;SDS011;66965;43.328;6.668;2023-08-20T11:23:32;11.48;;;6.38;;
77775;SDS011;66965;43.328;6.668;2023-08-20T11:25:58;10.00;;;6.32;;
77775;SDS011;66965;43.328;6.668;2023-08-20T11:28:25;13.25;;;7.05;;
77775;SDS011;66965;43.328;6.668;2023-08-20T11:30:52;13.00;;;6.65;;
77775;SDS011;66965;43.328;6.668;2023-08-20T11:33:18;13.00;;;7.35;;
77775;SDS011;66965;43.328;6.668;2023-08-20T11:35:44;10.75;;;6.18;;
77775;SDS011;66965;43.328;6.668;2023-08-20T11:38:09;13.35;;;6.85;;
77775;SDS011;66965;43.328;6.668;2023-08-20T11:40:36;10.52;;;6.22;;
77775;SDS011;66965;43.328;6.668;2023-08-20T11:43:01;8.90;;;5.70;;
77775;SDS011;66965;43.328;6.668;2023-08-20T11:45:27;9.65;;;5.80;;
77775;SDS011;66965;43.328;6.668;2023-08-20T11:47:56;12.63;;;5.80;;
77775;SDS011;66965;43.328;6.668;2023-08-20T11:50:25;9.38;;;5.65;;
77775;SDS011;66965;43.328;6.668;2023-08-20T11:52:51;33.25;;;8.15;;
77775;SDS011;66965;43.328;6.668;2023-08-20T11:55:22;11.05;;;5.78;;
77775;SDS011;66965;43.328;6.668;2023-08-20T11:57:50;10.52;;;5.80;;
77775;SDS011;66965;43.328;6.668;2023-08-20T12:00:23;9.15;;;5.28;;
77775;SDS011;66965;43.328;6.668;2023-08-20T12:05:28;7.85;;;5.10;;
77775;SDS011;66965;43.328;6.668;2023-08-20T12:07:55;12.95;;;5.68;;
77775;SDS011;66965;43.328;6.668;2023-08-20T12:10:23;9.05;;;4.97;;
77775;SDS011;66965;43.328;6.668;2023-08-20T12:12:49;10.95;;;4.60;;
77775;SDS011;66965;43.328;6.668;2023-08-20T12:15:15;10.32;;;4.65;;
77775;SDS011;66965;43.328;6.668;2023-08-20T12:17:40;6.40;;;5.13;;
77775;SDS011;66965;43.328;6.668;2023-08-20T12:20:06;12.50;;;6.03;;
77775;SDS011;66965;43.328;6.668;2023-08-20T12:25:02;8.70;;;5.03;;
77775;SDS011;66965;43.328;6.668;2023-08-20T12:27:28;12.30;;;5.05;;
77775;SDS011;66965;43.328;6.668;2023-08-20T12:29:54;9.65;;;4.82;;
77775;SDS011;66965;43.328;6.668;2023-08-20T12:32:19;8.93;;;4.90;;
77775;SDS011;66965;43.328;6.668;2023-08-20T12:34:44;8.32;;;4.93;;
77775;SDS011;66965;43.328;6.668;2023-08-20T12:37:10;6.72;;;4.65;;
77775;SDS011;66965;43.328;6.668;2023-08-20T12:39:35;7.63;;;4.82;;
77775;SDS011;66965;43.328;6.668;2023-08-20T12:42:01;7.00;;;4.80;;
77775;SDS011;66965;43.328;6.668;2023-08-20T12:44:27;9.23;;;4.40;;
77775;SDS011;66965;43.328;6.668;2023-08-20T12:46:52;7.05;;;4.70;;
77775;SDS011;66965;43.328;6.668;2023-08-20T12:49:18;8.77;;;4.85;;
77775;SDS011;66965;43.328;6.668;2023-08-20T12:51:43;9.00;;;4.53;;
77775;SDS011;66965;43.328;6.668;2023-08-20T12:54:09;7.35;;;4.00;;
77775;SDS011;66965;43.328;6.668;2023-08-20T12:56:34;7.38;;;3.45;;
77775;SDS011;66965;43.328;6.668;2023-08-20T12:59:00;6.03;;;3.35;;
77775;SDS011;66965;43.328;6.668;2023-08-20T13:01:25;7.85;;;3.47;;
77775;SDS011;66965;43.328;6.668;2023-08-20T13:03:51;7.22;;;3.08;;
77775;SDS011;66965;43.328;6.668;2023-08-20T13:06:17;6.93;;;3.80;;
77775;SDS011;66965;43.328;6.668;2023-08-20T13:08:42;6.75;;;3.95;;
77775;SDS011;66965;43.328;6.668;2023-08-20T13:11:09;8.63;;;3.70;;
77775;SDS011;66965;43.328;6.668;2023-08-20T13:13:41;6.28;;;3.35;;
77775;SDS011;66965;43.328;6.668;2023-08-20T13:16:07;7.18;;;3.45;;
77775;SDS011;66965;43.328;6.668;2023-08-20T13:18:33;8.00;;;2.90;;
77775;SDS011;66965;43.328;6.668;2023-08-20T13:20:59;6.18;;;2.67;;
77775;SDS011;66965;43.328;6.668;2023-08-20T13:23:24;7.50;;;3.03;;
77775;SDS011;66965;43.328;6.668;2023-08-20T13:25:50;5.10;;;2.60;;
77775;SDS011;66965;43.328;6.668;2023-08-20T13:28:15;6.40;;;2.38;;
77775;SDS011;66965;43.328;6.668;2023-08-20T13:30:41;5.85;;;2.28;;
77775;SDS011;66965;43.328;6.668;2023-08-20T13:33:06;9.15;;;2.90;;
77775;SDS011;66965;43.328;6.668;2023-08-20T13:35:32;7.80;;;2.65;;
77775;SDS011;66965;43.328;6.668;2023-08-20T13:37:57;9.45;;;2.92;;
77775;SDS011;66965;43.328;6.668;2023-08-20T13:40:23;10.15;;;3.33;;
77775;SDS011;66965;43.328;6.668;2023-08-20T13:42:48;10.15;;;2.85;;
77775;SDS011;66965;43.328;6.668;2023-08-20T13:45:14;5.57;;;2.50;;
77775;SDS011;66965;43.328;6.668;2023-08-20T13:47:39;9.50;;;3.38;;
77775;SDS011;66965;43.328;6.668;2023-08-20T13:50:05;10.60;;;2.63;;
77775;SDS011;66965;43.328;6.668;2023-08-20T13:52:30;7.20;;;2.63;;
77775;SDS011;66965;43.328;6.668;2023-08-20T13:54:56;14.85;;;3.20;;
77775;SDS011;66965;43.328;6.668;2023-08-20T13:57:21;10.15;;;3.10;;
77775;SDS011;66965;43.328;6.668;2023-08-20T13:59:47;8.60;;;2.83;;
77775;SDS011;66965;43.328;6.668;2023-08-20T14:02:12;6.15;;;2.53;;
77775;SDS011;66965;43.328;6.668;2023-08-20T14:04:38;10.75;;;3.10;;
77775;SDS011;66965;43.328;6.668;2023-08-20T14:07:03;7.82;;;2.80;;
77775;SDS011;66965;43.328;6.668;2023-08-20T14:09:29;8.93;;;2.70;;
77775;SDS011;66965;43.328;6.668;2023-08-20T14:11:54;10.40;;;3.20;;
77775;SDS011;66965;43.328;6.668;2023-08-20T14:14:19;8.27;;;2.80;;
77775;SDS011;66965;43.328;6.668;2023-08-20T14:16:45;13.10;;;3.00;;
77775;SDS011;66965;43.328;6.668;2023-08-20T14:19:10;10.48;;;3.15;;
77775;SDS011;66965;43.328;6.668;2023-08-20T14:21:36;13.43;;;3.40;;
77775;SDS011;66965;43.328;6.668;2023-08-20T14:24:02;15.85;;;3.17;;
77775;SDS011;66965;43.328;6.668;2023-08-20T14:26:27;10.45;;;3.38;;
77775;SDS011;66965;43.328;6.668;2023-08-20T14:28:53;10.10;;;2.30;;
77775;SDS011;66965;43.328;6.668;2023-08-20T14:31:18;11.00;;;2.92;;
77775;SDS011;66965;43.328;6.668;2023-08-20T14:33:44;9.15;;;3.00;;
77775;SDS011;66965;43.328;6.668;2023-08-20T14:36:10;11.38;;;3.25;;
77775;SDS011;66965;43.328;6.668;2023-08-20T14:38:35;9.32;;;2.70;;
77775;SDS011;66965;43.328;6.668;2023-08-20T14:41:01;11.93;;;3.58;;
77775;SDS011;66965;43.328;6.668;2023-08-20T14:43:27;13.70;;;2.80;;
77775;SDS011;66965;43.328;6.668;2023-08-20T14:45:53;10.93;;;3.45;;
77775;SDS011;66965;43.328;6.668;2023-08-20T14:48:19;8.23;;;3.65;;
77775;SDS011;66965;43.328;6.668;2023-08-20T14:50:45;11.57;;;2.50;;
77775;SDS011;66965;43.328;6.668;2023-08-20T14:53:10;8.00;;;2.42;;
77775;SDS011;66965;43.328;6.668;2023-08-20T14:55:36;16.42;;;4.40;;
77775;SDS011;66965;43.328;6.668;2023-08-20T14:58:01;13.38;;;3.17;;
77775;SDS011;66965;43.328;6.668;2023-08-20T15:00:26;9.35;;;2.60;;
77775;SDS011;66965;43.328;6.668;2023-08-20T15:02:52;7.75;;;2.30;;
77775;SDS011;66965;43.328;6.668;2023-08-20T15:05:17;12.02;;;3.55;;
77775;SDS011;66965;43.328;6.668;2023-08-20T15:07:43;10.52;;;3.20;;
77775;SDS011;66965;43.328;6.668;2023-08-20T15:10:09;10.23;;;3.05;;
77775;SDS011;66965;43.328;6.668;2023-08-20T15:12:34;8.95;;;2.90;;
77775;SDS011;66965;43.328;6.668;2023-08-20T15:15:01;12.00;;;3.03;;
77775;SDS011;66965;43.328;6.668;2023-08-20T15:17:30;10.80;;;3.17;;
77775;SDS011;66965;43.328;6.668;2023-08-20T15:19:57;15.77;;;4.05;;
77775;SDS011;66965;43.328;6.668;2023-08-20T15:22:22;14.20;;;3.58;;
77775;SDS011;66965;43.328;6.668;2023-08-20T15:24:48;19.23;;;3.72;;
77775;SDS011;66965;43.328;6.668;2023-08-20T15:27:15;17.42;;;3.90;;
77775;SDS011;66965;43.328;6.668;2023-08-20T15:29:42;15.32;;;4.28;;